Nicola Andrea — IPAF — position and weather

sailwx.info

Track history (hours):
 
Tides and Currents Weather Stations Pressure Air Temp Water Temp Dewpoint Dewpoint Depression Visibility Wind Speed Wind Dir Waves Ship Positions

Nicola Andrea

Last reported at 2017-Dec-15 05:52 UTC. Time now 2017-Dec-15 06:12 UTC.
Position N 40°01' E 016°40'.

Length 21 m; draft 2.8 m.

Type: Fishing. MMSI: 247134160.

Date/timePositionNaut miles runAvg speedWind from/ knotsBaromVisibWave heightAir tempDewpointWater temp
2017-Dec-15 05:52N 40°01' E 016°40'3 0.2
2017-Dec-14 15:32N 39°58' E 016°42'7 7.7
2017-Dec-14 14:35N 39°53' E 016°36'0 0.7
2017-Dec-14 14:21N 39°53' E 016°37'22 2.6
2017-Dec-14 05:56N 40°12' E 016°50'1 1.7
2017-Dec-14 05:28N 40°12' E 016°48'1 2.6
2017-Dec-14 05:00N 40°11' E 016°48'2 0.4
2017-Dec-13 23:55N 40°12' E 016°50'1 0.1
2017-Dec-13 14:58N 40°11' E 016°49'7 2.4
2017-Dec-13 12:00N 40°05' E 016°46'2 1.0
2017-Dec-13 09:39N 40°07' E 016°47'0 2.7
2017-Dec-13 09:30N 40°07' E 016°47'3 2.7
2017-Dec-13 08:29N 40°10' E 016°48'1 2.7
2017-Dec-13 08:00N 40°11' E 016°49'1 2.3
2017-Dec-13 07:30N 40°12' E 016°49'0 0.9
2017-Dec-13 07:00N 40°12' E 016°49'1 2.4
2017-Dec-13 06:31N 40°11' E 016°49'1 2.4
2017-Dec-13 06:00N 40°10' E 016°48'1 2.4
2017-Dec-13 05:30N 40°09' E 016°47'1 2.4
2017-Dec-13 04:59N 40°08' E 016°47'1 2.5
2017-Dec-13 04:30N 40°06' E 016°46'1 2.6
2017-Dec-13 03:59N 40°05' E 016°45'2 2.6
2017-Dec-13 03:12N 40°03' E 016°44'0 2.5
2017-Dec-13 03:00N 40°03' E 016°44'1 1.1
2017-Dec-13 01:42N 40°04' E 016°45'5 2.5
2017-Dec-12 23:49N 40°08' E 016°47'3 2.6
2017-Dec-12 22:36N 40°11' E 016°49'0 2.7
2017-Dec-12 22:30N 40°12' E 016°49'1 1.7
2017-Dec-12 22:00N 40°11' E 016°48'1 1.7
2017-Dec-12 21:28N 40°10' E 016°48'2 2.6
2017-Dec-12 20:44N 40°08' E 016°47'11 2.5
2017-Dec-12 16:30N 39°59' E 016°40'3 5.2
2017-Dec-12 15:54N 39°56' E 016°40'5 8.4
2017-Dec-12 15:19N 39°51' E 016°37'3 8.7
2017-Dec-12 14:57N 39°49' E 016°35'5 8.9
2017-Dec-12 14:21N 39°44' E 016°32'4 1.9
2017-Dec-12 12:23N 39°40' E 016°31'2 4.8
2017-Dec-12 11:58N 39°42' E 016°32'3 6.2
2017-Dec-12 11:26N 39°45' E 016°34'3 7.5
2017-Dec-12 11:00N 39°48' E 016°35'7 2.7
2017-Dec-12 08:33N 39°53' E 016°40'3 2.5
2017-Dec-12 07:13N 39°56' E 016°43'1 2.5
2017-Dec-12 06:56N 39°56' E 016°44'2 2.4
2017-Dec-12 05:56N 39°59' E 016°44'2 3.3
2017-Dec-12 05:25N 39°60' E 016°42'3 7.8
2017-Dec-12 04:59N 39°60' E 016°38'1 1.1
2017-Dec-12 04:29N 40°00' E 016°38'2 2.6
2017-Dec-12 03:49N 40°02' E 016°38'4 0.9
2017-Dec-11 22:59N 39°58' E 016°40'1 2.6
2017-Dec-11 22:30N 39°56' E 016°40'3 2.9
2017-Dec-11 21:36N 39°54' E 016°38'1 0.1
2017-Dec-11 16:28N 39°54' E 016°38'1 2.2
2017-Dec-11 15:58N 39°55' E 016°39'0 0.1
2017-Dec-11 15:29N 39°55' E 016°39'1 2.1
2017-Dec-11 14:57N 39°54' E 016°38'1 2.4
2017-Dec-11 14:28N 39°55' E 016°39'1 2.5
2017-Dec-11 14:00N 39°56' E 016°40'2 4.7
2017-Dec-11 13:28N 39°56' E 016°43'4 2.5
2017-Dec-11 11:44N 39°60' E 016°40'1 2.6
2017-Dec-11 11:28N 40°01' E 016°40'0 0.1
2017-Dec-11 09:26N 40°01' E 016°40'1 1.7
2017-Dec-11 08:47N 39°60' E 016°40'0 0.8
2017-Dec-11 08:29N 39°60' E 016°40'0 0.0
2017-Dec-11 02:02N 39°60' E 016°40'0 2.6
2017-Dec-11 01:59N 39°60' E 016°40'1 2.6
2017-Dec-11 01:28N 39°58' E 016°40'2 4.1
2017-Dec-11 00:59N 39°56' E 016°40'13 8.6
2017-Dec-10 23:28N 39°44' E 016°33'  
2017-Dec-07 12:28N 39°41' E 016°32'1 2.8
2017-Dec-07 12:00N 39°42' E 016°33'12 7.6
2017-Dec-07 10:25N 39°53' E 016°41'10 4.8
2017-Dec-07 08:19N 40°02' E 016°46'2 2.6
2017-Dec-07 07:32N 40°04' E 016°48'0 2.3
2017-Dec-07 07:30N 40°04' E 016°48'2 2.6
2017-Dec-07 06:38N 40°06' E 016°49'0 2.6
2017-Dec-07 06:29N 40°06' E 016°49'4 2.5
2017-Dec-07 04:56N 40°10' E 016°51'2 2.8
2017-Dec-07 04:09N 40°12' E 016°52'1 3.7
2017-Dec-07 04:00N 40°12' E 016°52'1 2.3
2017-Dec-07 03:30N 40°12' E 016°50'0 0.8
2017-Dec-07 03:00N 40°12' E 016°51'0 0.9
2017-Dec-07 02:30N 40°12' E 016°50'1 2.3
2017-Dec-07 02:00N 40°11' E 016°50'1 2.3
2017-Dec-07 01:30N 40°10' E 016°49'1 2.3
2017-Dec-07 01:00N 40°09' E 016°49'2 2.4
2017-Dec-07 00:16N 40°07' E 016°48'1 2.4
2017-Dec-07 00:00N 40°07' E 016°47'1 2.5
2017-Dec-06 23:29N 40°05' E 016°46'1 2.5
2017-Dec-06 23:00N 40°04' E 016°45'1 2.5
2017-Dec-06 22:30N 40°03' E 016°45'1 2.6
2017-Dec-06 22:00N 40°02' E 016°44'  
Track history (hours):
 
Tides and Currents Weather Stations Pressure Air Temp Water Temp Dewpoint Dewpoint Depression Visibility Wind Speed Wind Dir Waves Ship Positions

Nicola Andrea

Last reported at 2017-Dec-15 05:52 UTC. Time now 2017-Dec-15 06:12 UTC.
Position N 40°01' E 016°40'.

Length 21 m; draft 2.8 m.

Type: Fishing. MMSI: 247134160.

Date/timePositionNaut miles runAvg speedWind from/ knotsBaromVisibWave heightAir tempDewpointWater temp
2017-Dec-15 05:52N 40°01' E 016°40'3 0.2
2017-Dec-14 15:32N 39°58' E 016°42'7 7.7
2017-Dec-14 14:35N 39°53' E 016°36'0 0.7
2017-Dec-14 14:21N 39°53' E 016°37'22 2.6
2017-Dec-14 05:56N 40°12' E 016°50'1 1.7
2017-Dec-14 05:28N 40°12' E 016°48'1 2.6
2017-Dec-14 05:00N 40°11' E 016°48'2 0.4
2017-Dec-13 23:55N 40°12' E 016°50'1 0.1
2017-Dec-13 14:58N 40°11' E 016°49'7 2.4
2017-Dec-13 12:00N 40°05' E 016°46'2 1.0
2017-Dec-13 09:39N 40°07' E 016°47'0 2.7
2017-Dec-13 09:30N 40°07' E 016°47'3 2.7
2017-Dec-13 08:29N 40°10' E 016°48'1 2.7
2017-Dec-13 08:00N 40°11' E 016°49'1 2.3
2017-Dec-13 07:30N 40°12' E 016°49'0 0.9
2017-Dec-13 07:00N 40°12' E 016°49'1 2.4
2017-Dec-13 06:31N 40°11' E 016°49'1 2.4
2017-Dec-13 06:00N 40°10' E 016°48'1 2.4
2017-Dec-13 05:30N 40°09' E 016°47'1 2.4
2017-Dec-13 04:59N 40°08' E 016°47'1 2.5
2017-Dec-13 04:30N 40°06' E 016°46'1 2.6
2017-Dec-13 03:59N 40°05' E 016°45'2 2.6
2017-Dec-13 03:12N 40°03' E 016°44'0 2.5
2017-Dec-13 03:00N 40°03' E 016°44'1 1.1
2017-Dec-13 01:42N 40°04' E 016°45'5 2.5
2017-Dec-12 23:49N 40°08' E 016°47'3 2.6
2017-Dec-12 22:36N 40°11' E 016°49'0 2.7
2017-Dec-12 22:30N 40°12' E 016°49'1 1.7
2017-Dec-12 22:00N 40°11' E 016°48'1 1.7
2017-Dec-12 21:28N 40°10' E 016°48'2 2.6
2017-Dec-12 20:44N 40°08' E 016°47'11 2.5
2017-Dec-12 16:30N 39°59' E 016°40'3 5.2
2017-Dec-12 15:54N 39°56' E 016°40'5 8.4
2017-Dec-12 15:19N 39°51' E 016°37'3 8.7
2017-Dec-12 14:57N 39°49' E 016°35'5 8.9
2017-Dec-12 14:21N 39°44' E 016°32'4 1.9
2017-Dec-12 12:23N 39°40' E 016°31'2 4.8
2017-Dec-12 11:58N 39°42' E 016°32'3 6.2
2017-Dec-12 11:26N 39°45' E 016°34'3 7.5
2017-Dec-12 11:00N 39°48' E 016°35'7 2.7
2017-Dec-12 08:33N 39°53' E 016°40'3 2.5
2017-Dec-12 07:13N 39°56' E 016°43'1 2.5
2017-Dec-12 06:56N 39°56' E 016°44'2 2.4
2017-Dec-12 05:56N 39°59' E 016°44'2 3.3
2017-Dec-12 05:25N 39°60' E 016°42'3 7.8
2017-Dec-12 04:59N 39°60' E 016°38'1 1.1
2017-Dec-12 04:29N 40°00' E 016°38'2 2.6
2017-Dec-12 03:49N 40°02' E 016°38'4 0.9
2017-Dec-11 22:59N 39°58' E 016°40'1 2.6
2017-Dec-11 22:30N 39°56' E 016°40'3 2.9
2017-Dec-11 21:36N 39°54' E 016°38'1 0.1
2017-Dec-11 16:28N 39°54' E 016°38'1 2.2
2017-Dec-11 15:58N 39°55' E 016°39'0 0.1
2017-Dec-11 15:29N 39°55' E 016°39'1 2.1
2017-Dec-11 14:57N 39°54' E 016°38'1 2.4
2017-Dec-11 14:28N 39°55' E 016°39'1 2.5
2017-Dec-11 14:00N 39°56' E 016°40'2 4.7
2017-Dec-11 13:28N 39°56' E 016°43'4 2.5
2017-Dec-11 11:44N 39°60' E 016°40'1 2.6
2017-Dec-11 11:28N 40°01' E 016°40'0 0.1
2017-Dec-11 09:26N 40°01' E 016°40'1 1.7
2017-Dec-11 08:47N 39°60' E 016°40'0 0.8
2017-Dec-11 08:29N 39°60' E 016°40'0 0.0
2017-Dec-11 02:02N 39°60' E 016°40'0 2.6
2017-Dec-11 01:59N 39°60' E 016°40'1 2.6
2017-Dec-11 01:28N 39°58' E 016°40'2 4.1
2017-Dec-11 00:59N 39°56' E 016°40'13 8.6
2017-Dec-10 23:28N 39°44' E 016°33'  
2017-Dec-07 12:28N 39°41' E 016°32'1 2.8
2017-Dec-07 12:00N 39°42' E 016°33'12 7.6
2017-Dec-07 10:25N 39°53' E 016°41'10 4.8
2017-Dec-07 08:19N 40°02' E 016°46'2 2.6
2017-Dec-07 07:32N 40°04' E 016°48'0 2.3
2017-Dec-07 07:30N 40°04' E 016°48'2 2.6
2017-Dec-07 06:38N 40°06' E 016°49'0 2.6
2017-Dec-07 06:29N 40°06' E 016°49'4 2.5
2017-Dec-07 04:56N 40°10' E 016°51'2 2.8
2017-Dec-07 04:09N 40°12' E 016°52'1 3.7
2017-Dec-07 04:00N 40°12' E 016°52'1 2.3
2017-Dec-07 03:30N 40°12' E 016°50'0 0.8
2017-Dec-07 03:00N 40°12' E 016°51'0 0.9
2017-Dec-07 02:30N 40°12' E 016°50'1 2.3
2017-Dec-07 02:00N 40°11' E 016°50'1 2.3
2017-Dec-07 01:30N 40°10' E 016°49'1 2.3
2017-Dec-07 01:00N 40°09' E 016°49'2 2.4
2017-Dec-07 00:16N 40°07' E 016°48'1 2.4
2017-Dec-07 00:00N 40°07' E 016°47'1 2.5
2017-Dec-06 23:29N 40°05' E 016°46'1 2.5
2017-Dec-06 23:00N 40°04' E 016°45'1 2.5
2017-Dec-06 22:30N 40°03' E 016°45'1 2.6
2017-Dec-06 22:00N 40°02' E 016°44'  

Dump ship's entire track history